createdAt,value
2023-02-16T00:04:13.004Z,78.20
2023-02-16T00:09:14.520Z,77.65
2023-02-16T00:14:16.321Z,73.72
2023-02-16T00:19:29.003Z,80.30
2023-02-16T00:24:31.117Z,68.03
2023-02-16T00:29:33.866Z,74.00
2023-02-16T00:34:36.676Z,68.88
2023-02-16T00:39:38.779Z,73.55
2023-02-16T00:44:41.528Z,68.80
2023-02-16T00:49:42.979Z,73.95
2023-02-16T00:54:44.401Z,72.47
2023-02-16T00:59:46.972Z,78.75
2023-02-16T01:04:48.473Z,77.05
2023-02-16T01:10:08.740Z,77.10
2023-02-16T01:20:18.957Z,73.60
2023-02-16T01:25:20.488Z,73.25
2023-02-16T01:30:23.071Z,78.18
2023-02-16T01:35:28.252Z,71.15
2023-02-16T01:40:32.696Z,72.72
2023-02-16T01:45:35.753Z,75.50
2023-02-16T01:50:47.493Z,70.03
2023-02-16T01:55:51.881Z,73.93
2023-02-16T02:00:53.324Z,81.70
2023-02-16T02:05:54.763Z,76.03
2023-02-16T02:10:56.196Z,76.28
2023-02-16T02:15:58.371Z,77.07
2023-02-16T02:21:37.303Z,71.07
2023-02-16T02:26:56.913Z,78.95
2023-02-16T02:32:04.148Z,78.65
2023-02-16T02:37:05.588Z,69.10
2023-02-16T02:42:25.284Z,82.40
2023-02-16T02:47:40.344Z,83.20
2023-02-16T02:52:41.727Z,85.03
2023-02-16T02:58:06.297Z,81.28
2023-02-16T03:03:14.687Z,80.93
2023-02-16T03:08:17.687Z,84.90
2023-02-16T03:13:23.123Z,75.22
2023-02-16T03:18:44.647Z,79.43
2023-02-16T03:24:06.010Z,84.82
2023-02-16T03:29:22.042Z,83.97
2023-02-16T03:34:24.336Z,84.35
2023-02-16T03:39:26.722Z,77.15
2023-02-16T03:44:28.235Z,80.30
2023-02-16T03:49:29.695Z,84.03
2023-02-16T03:54:31.094Z,81.53
2023-02-16T03:59:32.528Z,74.72
2023-02-16T04:04:33.907Z,82.13
2023-02-16T04:09:35.322Z,79.80
2023-02-16T04:14:36.680Z,81.03
2023-02-16T04:19:38.113Z,83.35
2023-02-16T04:24:39.499Z,81.97
2023-02-16T04:29:40.914Z,80.20
2023-02-16T04:34:42.358Z,81.05
2023-02-16T04:39:44.099Z,78.68
2023-02-16T04:44:45.492Z,83.20
2023-02-16T04:49:49.182Z,81.25
2023-02-16T04:54:51.579Z,77.88
2023-02-16T04:59:53.090Z,79.10
2023-02-16T05:04:54.541Z,71.07
2023-02-16T05:09:55.970Z,77.53
2023-02-16T05:14:57.364Z,77.03
2023-02-16T05:19:59.934Z,76.35
2023-02-16T05:25:01.813Z,71.80
2023-02-16T05:30:03.639Z,80.10
2023-02-16T05:35:05.211Z,78.75
2023-02-16T05:40:07.503Z,77.20
2023-02-16T05:45:09.249Z,75.53
2023-02-16T05:50:10.878Z,76.30
2023-02-16T05:55:12.330Z,84.70
2023-02-16T06:00:14.141Z,73.68
2023-02-16T06:05:15.546Z,78.32
2023-02-16T06:10:17.261Z,76.88
2023-02-16T06:15:18.736Z,80.63
2023-02-16T06:20:20.646Z,77.78
2023-02-16T06:25:22.046Z,79.25
2023-02-16T06:30:24.469Z,73.97
2023-02-16T06:35:25.954Z,70.15
2023-02-16T06:40:27.356Z,78.47
2023-02-16T06:45:28.757Z,77.00
2023-02-16T06:50:30.152Z,77.07
2023-02-16T06:55:36.213Z,71.43
2023-02-16T07:00:37.842Z,72.20
2023-02-16T07:05:39.280Z,76.38
2023-02-16T07:10:50.084Z,76.35
2023-02-16T07:15:52.047Z,78.05
2023-02-16T07:20:53.876Z,79.60
2023-02-16T07:25:55.267Z,69.85
2023-02-16T07:30:56.757Z,73.53
2023-02-16T07:35:58.215Z,70.03
2023-02-16T07:41:00.047Z,69.32
2023-02-16T07:46:01.947Z,75.55
2023-02-16T07:51:04.009Z,74.85
2023-02-16T07:56:05.827Z,77.05
2023-02-16T08:01:08.955Z,74.93
2023-02-16T08:06:10.714Z,72.45
2023-02-16T08:11:13.476Z,75.65
2023-02-16T08:16:16.568Z,69.53
2023-02-16T08:21:19.342Z,70.15
2023-02-16T08:26:21.890Z,73.78
2023-02-16T08:31:25.080Z,70.72
2023-02-16T08:36:29.512Z,70.82
2023-02-16T08:41:32.494Z,69.40
2023-02-16T08:46:34.411Z,64.00
2023-02-16T08:51:38.171Z,69.55
2023-02-16T08:56:39.590Z,68.65
2023-02-16T09:01:41.612Z,67.03
2023-02-16T09:06:44.435Z,73.32
2023-02-16T09:11:46.236Z,63.85
2023-02-16T09:16:48.071Z,76.05
2023-02-16T09:21:51.828Z,68.00
2023-02-16T09:26:53.249Z,74.13
2023-02-16T09:31:54.871Z,71.57
2023-02-16T09:36:56.601Z,69.63
2023-02-16T09:42:04.955Z,69.03
2023-02-16T09:47:11.264Z,69.85
2023-02-16T09:52:33.017Z,74.90
2023-02-16T09:57:56.808Z,68.90
2023-02-16T10:02:58.303Z,73.45
2023-02-16T10:08:00.191Z,76.57
2023-02-16T10:13:09.361Z,74.35
2023-02-16T10:18:26.303Z,74.20
2023-02-16T10:23:39.745Z,72.05
2023-02-16T10:28:41.260Z,85.15
2023-02-16T10:33:57.928Z,78.68
2023-02-16T10:39:19.693Z,73.03
2023-02-16T10:44:21.323Z,70.47
2023-02-16T10:49:24.458Z,74.03
2023-02-16T10:54:27.374Z,70.15
2023-02-16T10:59:37.185Z,76.95
2023-02-16T11:09:40.997Z,77.15
2023-02-16T11:14:48.496Z,82.60
2023-02-16T11:19:55.386Z,78.97
2023-02-16T11:24:59.374Z,74.90
2023-02-16T11:30:22.568Z,78.93
2023-02-16T11:35:24.187Z,75.93
2023-02-16T11:40:30.772Z,76.40
2023-02-16T11:45:32.143Z,76.53
2023-02-16T11:50:38.453Z,86.13
2023-02-16T11:55:43.204Z,83.20
2023-02-16T12:01:03.860Z,86.53
2023-02-16T12:06:43.888Z,75.72
2023-02-16T12:11:51.762Z,84.60
2023-02-16T12:17:12.772Z,81.93
2023-02-16T12:22:14.209Z,79.00
2023-02-16T12:27:24.577Z,79.97
2023-02-16T12:32:34.866Z,78.82
2023-02-16T12:37:43.484Z,76.38
2023-02-16T12:43:04.181Z,76.05
2023-02-16T12:48:05.553Z,76.68
2023-02-16T12:53:07.214Z,83.10
2023-02-16T12:58:24.006Z,76.10
2023-02-16T13:03:44.678Z,75.35
2023-02-16T13:09:00.743Z,78.22
2023-02-16T13:14:05.693Z,75.63
2023-02-16T13:19:10.826Z,74.43
2023-02-16T13:24:21.141Z,73.30
2023-02-16T13:29:37.574Z,73.68
2023-02-16T13:34:57.975Z,74.78
2023-02-16T13:40:05.147Z,69.30
2023-02-16T13:45:13.734Z,63.40
2023-02-16T13:50:21.088Z,64.03
2023-02-16T13:55:33.664Z,64.13
2023-02-16T14:00:35.139Z,59.22
2023-02-16T14:05:38.714Z,58.60
2023-02-16T14:10:58.833Z,60.75
2023-02-16T14:21:06.405Z,55.33
2023-02-16T14:26:10.217Z,54.78
2023-02-16T14:31:14.155Z,54.83
2023-02-16T14:36:16.906Z,49.15
2023-02-16T14:41:24.371Z,47.85
2023-02-16T14:46:44.773Z,36.25
2023-02-16T14:51:46.186Z,29.15
2023-02-16T14:57:13.729Z,28.90
2023-02-16T15:02:27.231Z,29.08
2023-02-16T15:07:28.971Z,29.90
2023-02-16T15:12:32.809Z,32.00
2023-02-16T15:17:44.928Z,32.92
2023-02-16T15:23:07.457Z,29.63
2023-02-16T15:28:09.022Z,33.97
2023-02-16T15:33:25.746Z,35.53
2023-02-16T15:38:31.834Z,40.78
2023-02-16T15:43:49.453Z,40.75
2023-02-16T15:48:51.008Z,42.75
2023-02-16T15:53:54.778Z,47.53
2023-02-16T15:58:57.831Z,43.60
2023-02-16T16:04:03.395Z,42.10
2023-02-16T16:09:08.248Z,40.72
2023-02-16T16:14:10.281Z,45.78
2023-02-16T16:19:19.233Z,41.25
2023-02-16T16:24:48.637Z,39.33
2023-02-16T16:29:50.065Z,43.85
2023-02-16T16:34:51.822Z,43.92
2023-02-16T16:39:59.128Z,45.60
2023-02-16T16:45:06.986Z,45.63
2023-02-16T16:50:13.104Z,45.42
2023-02-16T16:55:21.533Z,50.97
2023-02-16T17:00:24.959Z,46.25
2023-02-16T17:05:26.363Z,46.08
2023-02-16T17:10:27.855Z,48.33
2023-02-16T17:15:35.232Z,40.92
2023-02-16T17:20:36.731Z,39.92
2023-02-16T17:25:38.303Z,42.65
2023-02-16T17:30:40.177Z,41.38
2023-02-16T17:35:42.537Z,38.63
2023-02-16T17:40:46.422Z,36.55
2023-02-16T17:45:49.461Z,34.83
2023-02-16T17:50:51.318Z,32.95
2023-02-16T17:55:54.800Z,32.03
2023-02-16T18:00:56.407Z,32.15
2023-02-16T18:05:57.904Z,27.75
2023-02-16T18:11:02.167Z,25.98
2023-02-16T18:16:04.561Z,22.17
2023-02-16T18:21:06.557Z,18.10
2023-02-16T18:26:08.165Z,14.68
2023-02-16T18:31:10.376Z,13.43
2023-02-16T18:36:11.912Z,15.05
2023-02-16T18:41:13.477Z,14.05
2023-02-16T18:46:15.108Z,14.85
2023-02-16T18:51:17.506Z,12.85
2023-02-16T18:56:18.943Z,14.38
2023-02-16T19:01:23.481Z,13.90
2023-02-16T19:06:25.262Z,13.68
2023-02-16T19:11:28.236Z,14.82
2023-02-16T19:16:29.672Z,14.05
2023-02-16T19:21:31.205Z,14.82
2023-02-16T19:26:32.823Z,16.13
2023-02-16T19:31:35.582Z,17.65
2023-02-16T19:36:37.080Z,20.08
2023-02-16T19:41:40.320Z,22.27
2023-02-16T19:46:42.036Z,19.92
2023-02-16T19:51:43.904Z,19.80
2023-02-16T19:56:45.415Z,20.83
2023-02-16T20:01:46.934Z,21.13
2023-02-16T20:06:48.977Z,21.63
2023-02-16T20:11:51.181Z,22.88
2023-02-16T20:16:52.658Z,22.75
2023-02-16T20:21:55.371Z,22.40
2023-02-16T20:26:56.891Z,24.65
2023-02-16T20:31:58.862Z,22.05
2023-02-16T20:37:00.431Z,21.55
2023-02-16T20:42:01.889Z,19.75
2023-02-16T20:47:03.624Z,20.63
2023-02-16T20:52:05.276Z,19.30
2023-02-16T20:57:09.528Z,21.65
2023-02-16T21:02:14.582Z,21.73
2023-02-16T21:07:16.105Z,22.75
2023-02-16T21:12:17.545Z,22.52
2023-02-16T21:17:19.485Z,21.75
2023-02-16T21:22:21.307Z,23.73
2023-02-16T21:27:22.699Z,24.40
2023-02-16T21:32:24.137Z,27.40
2023-02-16T21:37:25.630Z,25.38
2023-02-16T21:42:27.059Z,28.80
2023-02-16T21:47:47.254Z,29.75
2023-02-16T21:57:50.128Z,34.88
2023-02-16T22:02:51.546Z,29.52
2023-02-16T22:07:52.978Z,31.00
2023-02-16T22:12:54.939Z,30.80
2023-02-16T22:17:56.367Z,34.67
2023-02-16T22:22:57.836Z,30.33
2023-02-16T22:27:59.301Z,34.92
2023-02-16T22:33:00.755Z,33.50
2023-02-16T22:38:02.740Z,30.60
2023-02-16T22:43:04.139Z,36.35
2023-02-16T22:48:05.590Z,35.33
2023-02-16T22:53:07.356Z,29.33
2023-02-16T22:58:08.853Z,28.35
2023-02-16T23:03:10.336Z,30.42
2023-02-16T23:08:11.926Z,29.13
2023-02-16T23:13:13.364Z,30.08
2023-02-16T23:18:14.880Z,28.75
2023-02-16T23:23:16.379Z,28.60
2023-02-16T23:28:17.880Z,30.70
2023-02-16T23:33:19.282Z,26.65
2023-02-16T23:38:20.879Z,23.83
2023-02-16T23:43:22.308Z,25.58
2023-02-16T23:48:23.810Z,29.73
2023-02-16T23:53:26.096Z,25.83
2023-02-16T23:58:28.382Z,25.27
